Whitesville, KY

11:40 AM CDT on October 31, 2014 (GMT -0500)
KKYPHILP1 | Change Station
CLOSE
Current Station
Personal Weather Station
Location: Philpot, KY
Elevation: 482 ft
Nearby Weather Stations
Active Advisory: Freeze Warning

Elev 482 ft 37.74 °N, 86.95 °W | Updated 8 seconds ago

Overcast
Overcast
43.2 °F
Feels Like 40 °F
N
4.9
Wind Variable Wind from North
Gusts 20.0 mph

Today
High -- | Low -- °F
--% Chance of Precip.
Yesterday
High -- | Low -- °F
Precip. -- in
7:11 AM 5:50 PM
First Quarter, 57% visible
Pressure 30.08 in
Visibility 4.0 miles
Clouds Few 800 ft
Mostly Cloudy 1300 ft
Overcast 3000 ft
Windchill 40 °F
Dew Point 40 °F
Humidity 88%
Rainfall 0.02 in
Snow Depth Not available.
UV 1 out of 12
Pollen .90 out of 12
Air Quality Not available.
Flu Activity Not available.
SPECI KOWB 311633Z 35013G19KT 4SM -RA BR FEW008 BKN013 OVC030 06/04 A3008 RMK AO2 P0000 PK WND 33036/1605

More Conditions Fewer Conditions

Pressure 30.08 in
Visibility 4.0 miles
Clouds Few 800 ft
Mostly Cloudy 1300 ft
Overcast 3000 ft
Windchill 40 °F
Dew Point 40 °F
Humidity 88%
Rainfall 0.02 in
Snow Depth Not available.
UV 1 out of 12
Pollen .90 out of 12
Air Quality Not available.
Flu Activity Not available.
SPECI KOWB 311633Z 35013G19KT 4SM -RA BR FEW008 BKN013 OVC030 06/04 A3008 RMK AO2 P0000 PK WND 33036/1605

More Conditions Fewer Conditions

10-Day Weather Forecast

Almanac

Astronomy

Oct. 31, 2014 Rise Set
Actual Time
Civil Twilight
Nautical Twilight
Astronomical Twilight
Moon
Length of Visible Light
Length of Day
Tomorrow will be .
, % of the Moon is Illuminated

Today's Extremes

State Highs State Lows

Community

WunderPhotos

Upload Photos

1,766,657 photos uploaded!

WunderBlogs® & News

Nearby

Air Quality

  Air Quality AQ Index Pollutant
Not available.

Snow Depth

Station Depth Elevation

Earthquake Activity

City Distance Mag. Time & Date
Minimum magnitude displayed is 2.5.

Coastal Water Temperatures

Place Temperature

Nearby Weather Stations